sensor_id;sensor_type;location;lat;lon;timestamp;temperature;humidity
17252;DHT22;8742;51.716;8.790;2023-10-13T00:02:01;16.80;99.90
17252;DHT22;8742;51.716;8.790;2023-10-13T00:04:32;16.70;99.90
17252;DHT22;8742;51.716;8.790;2023-10-13T00:07:02;16.70;99.90
17252;DHT22;8742;51.716;8.790;2023-10-13T00:09:30;16.60;99.90
17252;DHT22;8742;51.716;8.790;2023-10-13T00:11:58;16.60;99.90
17252;DHT22;8742;51.716;8.790;2023-10-13T00:14:25;16.60;99.90
17252;DHT22;8742;51.716;8.790;2023-10-13T00:17:00;16.60;99.90
17252;DHT22;8742;51.716;8.790;2023-10-13T00:19:33;16.60;99.90
17252;DHT22;8742;51.716;8.790;2023-10-13T00:22:05;16.60;99.90
17252;DHT22;8742;51.716;8.790;2023-10-13T00:24:36;16.60;99.90
17252;DHT22;8742;51.716;8.790;2023-10-13T00:27:09;16.60;99.90
17252;DHT22;8742;51.716;8.790;2023-10-13T00:29:50;16.70;99.90
17252;DHT22;8742;51.716;8.790;2023-10-13T00:32:25;16.70;99.90
17252;DHT22;8742;51.716;8.790;2023-10-13T00:34:54;16.70;99.90
17252;DHT22;8742;51.716;8.790;2023-10-13T00:37:22;16.70;99.90
17252;DHT22;8742;51.716;8.790;2023-10-13T00:39:54;16.80;99.90
17252;DHT22;8742;51.716;8.790;2023-10-13T00:42:22;16.80;99.90
17252;DHT22;8742;51.716;8.790;2023-10-13T00:44:56;16.80;99.90
17252;DHT22;8742;51.716;8.790;2023-10-13T00:47:23;16.80;99.90
17252;DHT22;8742;51.716;8.790;2023-10-13T00:50:05;16.80;99.90
17252;DHT22;8742;51.716;8.790;2023-10-13T00:52:33;16.80;99.90
17252;DHT22;8742;51.716;8.790;2023-10-13T00:55:02;16.80;99.90
17252;DHT22;8742;51.716;8.790;2023-10-13T00:57:30;16.80;99.90
17252;DHT22;8742;51.716;8.790;2023-10-13T00:59:57;16.80;99.90
17252;DHT22;8742;51.716;8.790;2023-10-13T01:02:23;16.80;99.90
17252;DHT22;8742;51.716;8.790;2023-10-13T01:05:06;16.80;99.90
17252;DHT22;8742;51.716;8.790;2023-10-13T01:07:35;16.80;99.90
17252;DHT22;8742;51.716;8.790;2023-10-13T01:10:03;16.80;99.90
17252;DHT22;8742;51.716;8.790;2023-10-13T01:12:30;16.80;99.90
17252;DHT22;8742;51.716;8.790;2023-10-13T01:14:56;16.80;99.90
17252;DHT22;8742;51.716;8.790;2023-10-13T01:17:25;16.80;99.90
17252;DHT22;8742;51.716;8.790;2023-10-13T01:19:57;16.80;99.90
17252;DHT22;8742;51.716;8.790;2023-10-13T01:22:26;16.80;99.90
17252;DHT22;8742;51.716;8.790;2023-10-13T01:24:55;16.70;99.90
17252;DHT22;8742;51.716;8.790;2023-10-13T01:27:34;16.70;99.90
17252;DHT22;8742;51.716;8.790;2023-10-13T01:30:04;16.70;99.90
17252;DHT22;8742;51.716;8.790;2023-10-13T01:32:38;16.70;99.90
17252;DHT22;8742;51.716;8.790;2023-10-13T01:35:07;16.60;99.90
17252;DHT22;8742;51.716;8.790;2023-10-13T01:37:34;16.60;99.90
17252;DHT22;8742;51.716;8.790;2023-10-13T01:40:01;16.60;99.90
17252;DHT22;8742;51.716;8.790;2023-10-13T01:42:28;16.60;99.90
17252;DHT22;8742;51.716;8.790;2023-10-13T01:44:56;16.60;99.90
17252;DHT22;8742;51.716;8.790;2023-10-13T01:47:30;16.70;99.90
17252;DHT22;8742;51.716;8.790;2023-10-13T01:49:56;16.70;99.90
17252;DHT22;8742;51.716;8.790;2023-10-13T01:52:24;16.70;99.90
17252;DHT22;8742;51.716;8.790;2023-10-13T01:54:50;16.80;99.90
17252;DHT22;8742;51.716;8.790;2023-10-13T01:57:18;16.80;99.90
17252;DHT22;8742;51.716;8.790;2023-10-13T01:59:46;16.90;99.90
17252;DHT22;8742;51.716;8.790;2023-10-13T02:02:13;16.90;99.90
17252;DHT22;8742;51.716;8.790;2023-10-13T02:04:39;16.90;99.90
17252;DHT22;8742;51.716;8.790;2023-10-13T02:07:08;16.90;99.90
17252;DHT22;8742;51.716;8.790;2023-10-13T02:09:34;16.90;99.90
17252;DHT22;8742;51.716;8.790;2023-10-13T02:12:02;17.00;99.90
17252;DHT22;8742;51.716;8.790;2023-10-13T02:14:30;17.00;99.90
17252;DHT22;8742;51.716;8.790;2023-10-13T02:16:58;17.00;99.90
17252;DHT22;8742;51.716;8.790;2023-10-13T02:19:38;17.00;99.90
17252;DHT22;8742;51.716;8.790;2023-10-13T02:22:09;17.10;99.90
17252;DHT22;8742;51.716;8.790;2023-10-13T02:24:36;17.00;99.90
17252;DHT22;8742;51.716;8.790;2023-10-13T02:27:05;17.10;99.90
17252;DHT22;8742;51.716;8.790;2023-10-13T02:29:40;17.00;99.90
17252;DHT22;8742;51.716;8.790;2023-10-13T02:32:07;17.10;99.90
17252;DHT22;8742;51.716;8.790;2023-10-13T02:34:44;17.10;99.90
17252;DHT22;8742;51.716;8.790;2023-10-13T02:37:11;17.10;99.90
17252;DHT22;8742;51.716;8.790;2023-10-13T02:39:38;17.20;99.90
17252;DHT22;8742;51.716;8.790;2023-10-13T02:42:06;17.10;99.90
17252;DHT22;8742;51.716;8.790;2023-10-13T02:44:33;17.10;99.90
17252;DHT22;8742;51.716;8.790;2023-10-13T02:47:03;17.10;99.90
17252;DHT22;8742;51.716;8.790;2023-10-13T02:49:39;17.10;99.90
17252;DHT22;8742;51.716;8.790;2023-10-13T02:52:08;17.10;99.90
17252;DHT22;8742;51.716;8.790;2023-10-13T02:54:35;17.20;99.90
17252;DHT22;8742;51.716;8.790;2023-10-13T02:57:05;17.10;99.90
17252;DHT22;8742;51.716;8.790;2023-10-13T02:59:32;17.20;99.90
17252;DHT22;8742;51.716;8.790;2023-10-13T03:02:07;17.20;99.90
17252;DHT22;8742;51.716;8.790;2023-10-13T03:04:43;17.20;99.90
17252;DHT22;8742;51.716;8.790;2023-10-13T03:07:09;17.20;99.90
17252;DHT22;8742;51.716;8.790;2023-10-13T03:09:41;17.20;99.90
17252;DHT22;8742;51.716;8.790;2023-10-13T03:12:15;17.20;99.90
17252;DHT22;8742;51.716;8.790;2023-10-13T03:14:42;17.20;99.90
17252;DHT22;8742;51.716;8.790;2023-10-13T03:17:14;17.20;99.90
17252;DHT22;8742;51.716;8.790;2023-10-13T03:19:42;17.20;99.90
17252;DHT22;8742;51.716;8.790;2023-10-13T03:22:11;17.20;99.90
17252;DHT22;8742;51.716;8.790;2023-10-13T03:24:42;17.30;99.90
17252;DHT22;8742;51.716;8.790;2023-10-13T03:27:11;17.30;99.90
17252;DHT22;8742;51.716;8.790;2023-10-13T03:29:42;17.20;99.90
17252;DHT22;8742;51.716;8.790;2023-10-13T03:32:10;17.20;99.90
17252;DHT22;8742;51.716;8.790;2023-10-13T03:34:42;17.20;99.90
17252;DHT22;8742;51.716;8.790;2023-10-13T03:37:18;17.20;99.90
17252;DHT22;8742;51.716;8.790;2023-10-13T03:40:02;17.20;99.90
17252;DHT22;8742;51.716;8.790;2023-10-13T03:42:32;17.30;99.90
17252;DHT22;8742;51.716;8.790;2023-10-13T03:44:59;17.30;99.90
17252;DHT22;8742;51.716;8.790;2023-10-13T03:47:28;17.30;99.90
17252;DHT22;8742;51.716;8.790;2023-10-13T03:49:59;17.30;99.90
17252;DHT22;8742;51.716;8.790;2023-10-13T03:52:40;17.30;99.90
17252;DHT22;8742;51.716;8.790;2023-10-13T03:55:07;17.40;99.90
17252;DHT22;8742;51.716;8.790;2023-10-13T03:57:42;17.40;99.90
17252;DHT22;8742;51.716;8.790;2023-10-13T04:00:08;17.40;99.90
17252;DHT22;8742;51.716;8.790;2023-10-13T04:02:38;17.50;99.90
17252;DHT22;8742;51.716;8.790;2023-10-13T04:05:12;17.50;99.90
17252;DHT22;8742;51.716;8.790;2023-10-13T04:08:02;17.40;99.90
17252;DHT22;8742;51.716;8.790;2023-10-13T04:10:43;17.40;99.90
17252;DHT22;8742;51.716;8.790;2023-10-13T04:13:27;17.40;99.90
17252;DHT22;8742;51.716;8.790;2023-10-13T04:16:11;17.50;99.90
17252;DHT22;8742;51.716;8.790;2023-10-13T04:19:00;17.40;99.90
17252;DHT22;8742;51.716;8.790;2023-10-13T04:21:36;17.50;99.90
17252;DHT22;8742;51.716;8.790;2023-10-13T04:24:06;17.50;99.90
17252;DHT22;8742;51.716;8.790;2023-10-13T04:26:49;17.50;99.90
17252;DHT22;8742;51.716;8.790;2023-10-13T04:29:44;17.40;99.90
17252;DHT22;8742;51.716;8.790;2023-10-13T04:32:18;17.40;99.90
17252;DHT22;8742;51.716;8.790;2023-10-13T04:34:54;17.40;99.90
17252;DHT22;8742;51.716;8.790;2023-10-13T04:37:25;17.40;99.90
17252;DHT22;8742;51.716;8.790;2023-10-13T04:39:55;17.50;99.90
17252;DHT22;8742;51.716;8.790;2023-10-13T04:42:25;17.40;99.90
17252;DHT22;8742;51.716;8.790;2023-10-13T04:45:16;17.50;99.90
17252;DHT22;8742;51.716;8.790;2023-10-13T04:48:04;17.50;99.90
17252;DHT22;8742;51.716;8.790;2023-10-13T04:50:46;17.50;99.90
17252;DHT22;8742;51.716;8.790;2023-10-13T04:53:15;17.50;99.90
17252;DHT22;8742;51.716;8.790;2023-10-13T04:55:56;17.50;99.90
17252;DHT22;8742;51.716;8.790;2023-10-13T04:58:56;17.50;99.90
17252;DHT22;8742;51.716;8.790;2023-10-13T05:01:40;17.50;99.90
17252;DHT22;8742;51.716;8.790;2023-10-13T05:04:47;17.40;99.90
17252;DHT22;8742;51.716;8.790;2023-10-13T05:07:47;17.30;99.90
17252;DHT22;8742;51.716;8.790;2023-10-13T05:10:34;17.20;99.90
17252;DHT22;8742;51.716;8.790;2023-10-13T05:13:18;17.20;99.90
17252;DHT22;8742;51.716;8.790;2023-10-13T05:16:03;17.10;99.90
17252;DHT22;8742;51.716;8.790;2023-10-13T05:18:48;17.00;99.90
17252;DHT22;8742;51.716;8.790;2023-10-13T05:21:32;17.00;99.90
17252;DHT22;8742;51.716;8.790;2023-10-13T05:24:17;17.00;99.90
17252;DHT22;8742;51.716;8.790;2023-10-13T05:27:02;16.90;99.90
17252;DHT22;8742;51.716;8.790;2023-10-13T05:29:47;16.90;99.90
17252;DHT22;8742;51.716;8.790;2023-10-13T05:32:32;16.90;99.90
17252;DHT22;8742;51.716;8.790;2023-10-13T05:35:25;16.80;99.90
17252;DHT22;8742;51.716;8.790;2023-10-13T05:38:09;16.80;99.90
17252;DHT22;8742;51.716;8.790;2023-10-13T05:40:57;16.80;99.90
17252;DHT22;8742;51.716;8.790;2023-10-13T05:43:44;16.80;99.90
17252;DHT22;8742;51.716;8.790;2023-10-13T05:46:28;16.70;99.90
17252;DHT22;8742;51.716;8.790;2023-10-13T05:49:13;16.70;99.90
17252;DHT22;8742;51.716;8.790;2023-10-13T05:51:57;16.70;99.90
17252;DHT22;8742;51.716;8.790;2023-10-13T05:54:45;16.80;99.90
17252;DHT22;8742;51.716;8.790;2023-10-13T05:57:29;16.80;99.90
17252;DHT22;8742;51.716;8.790;2023-10-13T06:00:16;16.80;99.90
17252;DHT22;8742;51.716;8.790;2023-10-13T06:03:00;16.80;99.90
17252;DHT22;8742;51.716;8.790;2023-10-13T06:05:45;16.80;99.90
17252;DHT22;8742;51.716;8.790;2023-10-13T06:08:29;16.90;99.90
17252;DHT22;8742;51.716;8.790;2023-10-13T06:11:14;17.00;99.90
17252;DHT22;8742;51.716;8.790;2023-10-13T06:13:58;17.00;99.90
17252;DHT22;8742;51.716;8.790;2023-10-13T06:16:44;17.10;99.90
17252;DHT22;8742;51.716;8.790;2023-10-13T06:19:28;17.20;99.90
17252;DHT22;8742;51.716;8.790;2023-10-13T06:22:12;17.20;99.90
17252;DHT22;8742;51.716;8.790;2023-10-13T06:24:57;17.20;99.90
17252;DHT22;8742;51.716;8.790;2023-10-13T06:27:41;17.30;99.90
17252;DHT22;8742;51.716;8.790;2023-10-13T06:30:26;17.30;99.90
17252;DHT22;8742;51.716;8.790;2023-10-13T06:32:54;17.30;99.90
17252;DHT22;8742;51.716;8.790;2023-10-13T06:35:21;17.30;99.90
17252;DHT22;8742;51.716;8.790;2023-10-13T06:37:49;17.30;99.90
17252;DHT22;8742;51.716;8.790;2023-10-13T06:40:17;17.30;99.90
17252;DHT22;8742;51.716;8.790;2023-10-13T06:42:58;17.40;99.90
17252;DHT22;8742;51.716;8.790;2023-10-13T06:45:38;17.40;99.90
17252;DHT22;8742;51.716;8.790;2023-10-13T06:48:07;17.40;99.90
17252;DHT22;8742;51.716;8.790;2023-10-13T06:50:37;17.40;99.90
17252;DHT22;8742;51.716;8.790;2023-10-13T06:53:07;17.40;99.90
17252;DHT22;8742;51.716;8.790;2023-10-13T06:55:38;17.40;99.90
17252;DHT22;8742;51.716;8.790;2023-10-13T06:58:05;17.40;99.90
17252;DHT22;8742;51.716;8.790;2023-10-13T07:00:32;17.40;99.90
17252;DHT22;8742;51.716;8.790;2023-10-13T07:03:00;17.40;99.90
17252;DHT22;8742;51.716;8.790;2023-10-13T07:05:36;17.50;99.90
17252;DHT22;8742;51.716;8.790;2023-10-13T07:08:05;17.50;99.90
17252;DHT22;8742;51.716;8.790;2023-10-13T07:10:32;17.50;99.90
17252;DHT22;8742;51.716;8.790;2023-10-13T07:13:10;17.50;99.90
17252;DHT22;8742;51.716;8.790;2023-10-13T07:15:39;17.60;99.90
17252;DHT22;8742;51.716;8.790;2023-10-13T07:18:11;17.60;99.90
17252;DHT22;8742;51.716;8.790;2023-10-13T07:20:41;17.60;99.90
17252;DHT22;8742;51.716;8.790;2023-10-13T07:23:11;17.70;99.90
17252;DHT22;8742;51.716;8.790;2023-10-13T07:25:50;17.70;99.90
17252;DHT22;8742;51.716;8.790;2023-10-13T07:28:17;17.80;99.90
17252;DHT22;8742;51.716;8.790;2023-10-13T07:30:44;17.80;99.90
17252;DHT22;8742;51.716;8.790;2023-10-13T07:33:36;17.80;99.90
17252;DHT22;8742;51.716;8.790;2023-10-13T07:36:07;17.80;99.90
17252;DHT22;8742;51.716;8.790;2023-10-13T07:38:41;17.80;99.90
17252;DHT22;8742;51.716;8.790;2023-10-13T07:41:09;17.90;99.90
17252;DHT22;8742;51.716;8.790;2023-10-13T07:43:41;17.90;99.90
17252;DHT22;8742;51.716;8.790;2023-10-13T07:46:08;17.90;99.90
17252;DHT22;8742;51.716;8.790;2023-10-13T07:48:36;17.90;99.90
17252;DHT22;8742;51.716;8.790;2023-10-13T07:51:06;18.00;99.90
17252;DHT22;8742;51.716;8.790;2023-10-13T07:53:37;18.00;99.90
17252;DHT22;8742;51.716;8.790;2023-10-13T07:56:06;18.20;99.90
17252;DHT22;8742;51.716;8.790;2023-10-13T07:58:34;18.20;99.90
17252;DHT22;8742;51.716;8.790;2023-10-13T08:01:13;18.30;99.90
17252;DHT22;8742;51.716;8.790;2023-10-13T08:03:44;18.40;99.90
17252;DHT22;8742;51.716;8.790;2023-10-13T08:06:13;18.50;99.90
17252;DHT22;8742;51.716;8.790;2023-10-13T08:08:47;18.60;99.90
17252;DHT22;8742;51.716;8.790;2023-10-13T08:11:19;18.70;99.90
17252;DHT22;8742;51.716;8.790;2023-10-13T08:13:53;18.80;99.90
17252;DHT22;8742;51.716;8.790;2023-10-13T08:16:22;18.80;99.90
17252;DHT22;8742;51.716;8.790;2023-10-13T08:18:53;18.90;99.90
17252;DHT22;8742;51.716;8.790;2023-10-13T08:21:21;19.00;99.90
17252;DHT22;8742;51.716;8.790;2023-10-13T08:23:49;19.20;99.90
17252;DHT22;8742;51.716;8.790;2023-10-13T08:26:31;19.30;99.90
17252;DHT22;8742;51.716;8.790;2023-10-13T08:29:16;19.40;99.90
17252;DHT22;8742;51.716;8.790;2023-10-13T08:32:00;19.50;99.90
17252;DHT22;8742;51.716;8.790;2023-10-13T08:35:01;19.70;99.90
17252;DHT22;8742;51.716;8.790;2023-10-13T08:37:49;19.90;99.90
17252;DHT22;8742;51.716;8.790;2023-10-13T08:40:43;20.20;99.90
17252;DHT22;8742;51.716;8.790;2023-10-13T08:43:43;20.60;99.90
17252;DHT22;8742;51.716;8.790;2023-10-13T08:46:16;21.00;99.90
17252;DHT22;8742;51.716;8.790;2023-10-13T08:48:56;21.10;99.90
17252;DHT22;8742;51.716;8.790;2023-10-13T08:51:35;21.00;99.90
17252;DHT22;8742;51.716;8.790;2023-10-13T08:54:13;21.00;99.90
17252;DHT22;8742;51.716;8.790;2023-10-13T08:56:59;20.90;99.90
17252;DHT22;8742;51.716;8.790;2023-10-13T08:59:32;20.70;99.90
17252;DHT22;8742;51.716;8.790;2023-10-13T09:02:12;20.70;99.90
17252;DHT22;8742;51.716;8.790;2023-10-13T09:04:43;20.60;99.90
17252;DHT22;8742;51.716;8.790;2023-10-13T09:07:10;20.70;99.90
17252;DHT22;8742;51.716;8.790;2023-10-13T09:09:49;20.70;99.90
17252;DHT22;8742;51.716;8.790;2023-10-13T09:12:39;20.80;99.90
17252;DHT22;8742;51.716;8.790;2023-10-13T09:15:29;21.00;99.90
17252;DHT22;8742;51.716;8.790;2023-10-13T09:18:10;21.10;99.90
17252;DHT22;8742;51.716;8.790;2023-10-13T09:20:40;21.20;99.90
17252;DHT22;8742;51.716;8.790;2023-10-13T09:23:09;21.20;99.90
17252;DHT22;8742;51.716;8.790;2023-10-13T09:25:40;21.30;99.90
17252;DHT22;8742;51.716;8.790;2023-10-13T09:28:20;21.30;99.90
17252;DHT22;8742;51.716;8.790;2023-10-13T09:30:50;21.30;99.90
17252;DHT22;8742;51.716;8.790;2023-10-13T09:33:20;21.30;99.90
17252;DHT22;8742;51.716;8.790;2023-10-13T09:35:54;21.30;99.90
17252;DHT22;8742;51.716;8.790;2023-10-13T09:38:20;21.30;99.90
17252;DHT22;8742;51.716;8.790;2023-10-13T09:40:48;21.40;99.90
17252;DHT22;8742;51.716;8.790;2023-10-13T09:43:16;21.60;99.90
17252;DHT22;8742;51.716;8.790;2023-10-13T09:45:47;22.00;99.90
17252;DHT22;8742;51.716;8.790;2023-10-13T09:48:31;22.50;99.90
17252;DHT22;8742;51.716;8.790;2023-10-13T09:51:01;22.80;99.90
17252;DHT22;8742;51.716;8.790;2023-10-13T09:53:29;22.90;99.90
17252;DHT22;8742;51.716;8.790;2023-10-13T09:56:02;23.20;99.90
17252;DHT22;8742;51.716;8.790;2023-10-13T09:58:42;23.70;99.90
17252;DHT22;8742;51.716;8.790;2023-10-13T10:01:19;24.10;99.90
17252;DHT22;8742;51.716;8.790;2023-10-13T10:03:47;24.40;99.90
17252;DHT22;8742;51.716;8.790;2023-10-13T10:06:21;24.60;99.90
17252;DHT22;8742;51.716;8.790;2023-10-13T10:09:04;25.00;99.90
17252;DHT22;8742;51.716;8.790;2023-10-13T10:12:12;25.40;99.90
17252;DHT22;8742;51.716;8.790;2023-10-13T10:15:09;25.70;99.90
17252;DHT22;8742;51.716;8.790;2023-10-13T10:17:54;26.10;99.90
17252;DHT22;8742;51.716;8.790;2023-10-13T10:20:28;26.60;99.90
17252;DHT22;8742;51.716;8.790;2023-10-13T10:23:05;27.00;99.90
17252;DHT22;8742;51.716;8.790;2023-10-13T10:25:36;27.30;99.90
17252;DHT22;8742;51.716;8.790;2023-10-13T10:28:11;27.70;99.90
17252;DHT22;8742;51.716;8.790;2023-10-13T10:30:42;27.60;99.90
17252;DHT22;8742;51.716;8.790;2023-10-13T10:33:10;27.50;99.90
17252;DHT22;8742;51.716;8.790;2023-10-13T10:35:40;27.40;99.90
17252;DHT22;8742;51.716;8.790;2023-10-13T10:38:10;27.40;99.90
17252;DHT22;8742;51.716;8.790;2023-10-13T10:40:50;27.20;99.90
17252;DHT22;8742;51.716;8.790;2023-10-13T10:43:26;27.00;99.90
17252;DHT22;8742;51.716;8.790;2023-10-13T10:45:54;27.10;99.90
17252;DHT22;8742;51.716;8.790;2023-10-13T10:48:25;27.10;99.90
17252;DHT22;8742;51.716;8.790;2023-10-13T10:50:57;27.00;99.90
17252;DHT22;8742;51.716;8.790;2023-10-13T10:53:31;27.50;99.90
17252;DHT22;8742;51.716;8.790;2023-10-13T10:56:09;27.90;99.90
17252;DHT22;8742;51.716;8.790;2023-10-13T10:58:47;28.30;99.90
17252;DHT22;8742;51.716;8.790;2023-10-13T11:01:14;28.60;99.90
17252;DHT22;8742;51.716;8.790;2023-10-13T11:03:53;28.80;99.90
17252;DHT22;8742;51.716;8.790;2023-10-13T11:06:23;28.70;99.90
17252;DHT22;8742;51.716;8.790;2023-10-13T11:09:01;28.70;99.90
17252;DHT22;8742;51.716;8.790;2023-10-13T11:11:30;28.80;99.90
17252;DHT22;8742;51.716;8.790;2023-10-13T11:14:02;28.90;99.90
17252;DHT22;8742;51.716;8.790;2023-10-13T11:16:48;29.00;99.90
17252;DHT22;8742;51.716;8.790;2023-10-13T11:19:19;29.10;99.90
17252;DHT22;8742;51.716;8.790;2023-10-13T11:21:51;29.20;99.90
17252;DHT22;8742;51.716;8.790;2023-10-13T11:24:19;29.30;99.90
17252;DHT22;8742;51.716;8.790;2023-10-13T11:26:47;29.60;99.90
17252;DHT22;8742;51.716;8.790;2023-10-13T11:29:19;29.70;99.90
17252;DHT22;8742;51.716;8.790;2023-10-13T11:31:57;29.30;99.90
17252;DHT22;8742;51.716;8.790;2023-10-13T11:34:24;28.50;99.90
17252;DHT22;8742;51.716;8.790;2023-10-13T11:36:55;27.80;99.90
17252;DHT22;8742;51.716;8.790;2023-10-13T11:39:25;27.40;99.90
17252;DHT22;8742;51.716;8.790;2023-10-13T11:41:58;27.50;99.90
17252;DHT22;8742;51.716;8.790;2023-10-13T11:44:25;27.50;99.90
17252;DHT22;8742;51.716;8.790;2023-10-13T11:46:57;27.30;99.90
17252;DHT22;8742;51.716;8.790;2023-10-13T11:49:42;27.00;99.90
17252;DHT22;8742;51.716;8.790;2023-10-13T11:52:09;26.70;99.90
17252;DHT22;8742;51.716;8.790;2023-10-13T11:54:52;26.50;99.90
17252;DHT22;8742;51.716;8.790;2023-10-13T11:57:19;26.30;99.90
17252;DHT22;8742;51.716;8.790;2023-10-13T11:59:48;26.20;99.90
17252;DHT22;8742;51.716;8.790;2023-10-13T12:02:41;26.30;99.90
17252;DHT22;8742;51.716;8.790;2023-10-13T12:05:26;26.60;99.90
17252;DHT22;8742;51.716;8.790;2023-10-13T12:08:06;26.70;99.90
17252;DHT22;8742;51.716;8.790;2023-10-13T12:10:50;26.70;99.90
17252;DHT22;8742;51.716;8.790;2023-10-13T12:13:26;26.90;99.90
17252;DHT22;8742;51.716;8.790;2023-10-13T12:15:55;27.60;99.90
17252;DHT22;8742;51.716;8.790;2023-10-13T12:18:22;28.20;99.90
17252;DHT22;8742;51.716;8.790;2023-10-13T12:20:52;28.60;99.90
17252;DHT22;8742;51.716;8.790;2023-10-13T12:23:19;28.60;99.90
17252;DHT22;8742;51.716;8.790;2023-10-13T12:25:55;28.30;99.90
17252;DHT22;8742;51.716;8.790;2023-10-13T12:28:26;27.60;99.90
17252;DHT22;8742;51.716;8.790;2023-10-13T12:30:56;27.20;99.90
17252;DHT22;8742;51.716;8.790;2023-10-13T12:33:24;26.80;99.90
17252;DHT22;8742;51.716;8.790;2023-10-13T12:35:56;26.40;99.90
17252;DHT22;8742;51.716;8.790;2023-10-13T12:38:38;26.10;99.90
17252;DHT22;8742;51.716;8.790;2023-10-13T12:41:37;25.90;99.90
17252;DHT22;8742;51.716;8.790;2023-10-13T12:44:22;25.60;99.90
17252;DHT22;8742;51.716;8.790;2023-10-13T12:47:07;25.40;99.90
17252;DHT22;8742;51.716;8.790;2023-10-13T12:49:51;25.10;99.90
17252;DHT22;8742;51.716;8.790;2023-10-13T12:52:23;24.90;99.90
17252;DHT22;8742;51.716;8.790;2023-10-13T12:54:52;24.80;99.90
17252;DHT22;8742;51.716;8.790;2023-10-13T12:57:31;24.70;99.90
17252;DHT22;8742;51.716;8.790;2023-10-13T12:59:59;24.70;99.90
17252;DHT22;8742;51.716;8.790;2023-10-13T13:02:28;24.70;99.90
17252;DHT22;8742;51.716;8.790;2023-10-13T13:04:56;24.60;99.90
17252;DHT22;8742;51.716;8.790;2023-10-13T13:07:31;24.50;99.90
17252;DHT22;8742;51.716;8.790;2023-10-13T13:10:09;24.50;99.90
17252;DHT22;8742;51.716;8.790;2023-10-13T13:12:37;24.40;99.90
17252;DHT22;8742;51.716;8.790;2023-10-13T13:15:04;24.30;99.90
17252;DHT22;8742;51.716;8.790;2023-10-13T13:17:35;24.40;99.90
17252;DHT22;8742;51.716;8.790;2023-10-13T13:20:05;24.60;99.90
17252;DHT22;8742;51.716;8.790;2023-10-13T13:22:37;25.30;99.90
17252;DHT22;8742;51.716;8.790;2023-10-13T13:25:04;26.00;99.90
17252;DHT22;8742;51.716;8.790;2023-10-13T13:27:33;26.70;99.90
17252;DHT22;8742;51.716;8.790;2023-10-13T13:30:02;27.40;99.90
17252;DHT22;8742;51.716;8.790;2023-10-13T13:32:38;28.20;99.90
17252;DHT22;8742;51.716;8.790;2023-10-13T13:35:06;28.70;99.90
17252;DHT22;8742;51.716;8.790;2023-10-13T13:37:39;29.10;99.90
17252;DHT22;8742;51.716;8.790;2023-10-13T13:40:09;29.40;99.90
17252;DHT22;8742;51.716;8.790;2023-10-13T13:42:44;29.60;99.90
17252;DHT22;8742;51.716;8.790;2023-10-13T13:45:14;29.80;99.60
17252;DHT22;8742;51.716;8.790;2023-10-13T13:47:54;29.80;99.40
17252;DHT22;8742;51.716;8.790;2023-10-13T13:50:21;29.80;99.00
17252;DHT22;8742;51.716;8.790;2023-10-13T13:52:52;29.90;99.30
17252;DHT22;8742;51.716;8.790;2023-10-13T13:55:21;29.50;98.50
17252;DHT22;8742;51.716;8.790;2023-10-13T13:57:49;28.80;97.80
17252;DHT22;8742;51.716;8.790;2023-10-13T14:00:17;28.00;99.50
17252;DHT22;8742;51.716;8.790;2023-10-13T14:02:48;27.40;99.90
17252;DHT22;8742;51.716;8.790;2023-10-13T14:05:17;26.90;99.90
17252;DHT22;8742;51.716;8.790;2023-10-13T14:07:44;26.50;99.90
17252;DHT22;8742;51.716;8.790;2023-10-13T14:10:15;26.20;99.90
17252;DHT22;8742;51.716;8.790;2023-10-13T14:12:57;26.00;99.90
17252;DHT22;8742;51.716;8.790;2023-10-13T14:15:32;25.70;99.90
17252;DHT22;8742;51.716;8.790;2023-10-13T14:18:05;25.50;99.90
17252;DHT22;8742;51.716;8.790;2023-10-13T14:20:34;25.30;99.90
17252;DHT22;8742;51.716;8.790;2023-10-13T14:23:05;25.10;99.90
17252;DHT22;8742;51.716;8.790;2023-10-13T14:25:33;24.90;99.90
17252;DHT22;8742;51.716;8.790;2023-10-13T14:28:03;24.80;99.90
17252;DHT22;8742;51.716;8.790;2023-10-13T14:30:30;24.70;99.90
17252;DHT22;8742;51.716;8.790;2023-10-13T14:32:57;24.60;99.90
17252;DHT22;8742;51.716;8.790;2023-10-13T14:35:24;24.50;99.90
17252;DHT22;8742;51.716;8.790;2023-10-13T14:37:53;24.50;99.90
17252;DHT22;8742;51.716;8.790;2023-10-13T14:40:20;24.40;99.90
17252;DHT22;8742;51.716;8.790;2023-10-13T14:42:48;24.30;99.90
17252;DHT22;8742;51.716;8.790;2023-10-13T14:45:15;24.20;99.90
17252;DHT22;8742;51.716;8.790;2023-10-13T14:47:43;24.10;99.90
17252;DHT22;8742;51.716;8.790;2023-10-13T14:50:11;24.00;99.90
17252;DHT22;8742;51.716;8.790;2023-10-13T14:52:45;23.80;99.90
17252;DHT22;8742;51.716;8.790;2023-10-13T14:55:13;23.70;99.90
17252;DHT22;8742;51.716;8.790;2023-10-13T14:57:47;23.70;99.90
17252;DHT22;8742;51.716;8.790;2023-10-13T15:00:15;23.60;99.90
17252;DHT22;8742;51.716;8.790;2023-10-13T15:02:50;23.60;99.90
17252;DHT22;8742;51.716;8.790;2023-10-13T15:05:18;23.50;99.90
17252;DHT22;8742;51.716;8.790;2023-10-13T15:07:45;23.40;99.90
17252;DHT22;8742;51.716;8.790;2023-10-13T15:10:14;23.30;99.90
17252;DHT22;8742;51.716;8.790;2023-10-13T15:12:42;23.20;99.90
17252;DHT22;8742;51.716;8.790;2023-10-13T15:15:10;23.10;99.90
17252;DHT22;8742;51.716;8.790;2023-10-13T15:17:41;23.10;99.90
17252;DHT22;8742;51.716;8.790;2023-10-13T15:20:09;23.00;99.90
17252;DHT22;8742;51.716;8.790;2023-10-13T15:22:41;23.00;99.90
17252;DHT22;8742;51.716;8.790;2023-10-13T15:25:08;22.90;99.90
17252;DHT22;8742;51.716;8.790;2023-10-13T15:27:44;22.90;99.90
17252;DHT22;8742;51.716;8.790;2023-10-13T15:30:16;22.80;99.90
17252;DHT22;8742;51.716;8.790;2023-10-13T15:32:52;22.80;99.90
17252;DHT22;8742;51.716;8.790;2023-10-13T15:35:19;22.80;99.90
17252;DHT22;8742;51.716;8.790;2023-10-13T15:37:49;22.70;99.90
17252;DHT22;8742;51.716;8.790;2023-10-13T15:40:17;22.70;99.90
17252;DHT22;8742;51.716;8.790;2023-10-13T15:42:46;22.70;99.90
17252;DHT22;8742;51.716;8.790;2023-10-13T15:45:13;22.70;99.90
17252;DHT22;8742;51.716;8.790;2023-10-13T15:47:48;22.70;99.90
17252;DHT22;8742;51.716;8.790;2023-10-13T15:50:15;22.70;99.90
17252;DHT22;8742;51.716;8.790;2023-10-13T15:52:46;22.80;99.90
17252;DHT22;8742;51.716;8.790;2023-10-13T15:55:13;22.80;99.90
17252;DHT22;8742;51.716;8.790;2023-10-13T15:57:41;22.80;99.90
17252;DHT22;8742;51.716;8.790;2023-10-13T16:00:11;22.80;99.90
17252;DHT22;8742;51.716;8.790;2023-10-13T16:02:51;22.80;99.90
17252;DHT22;8742;51.716;8.790;2023-10-13T16:05:20;22.80;99.90
17252;DHT22;8742;51.716;8.790;2023-10-13T16:07:50;22.80;99.90
17252;DHT22;8742;51.716;8.790;2023-10-13T16:10:17;22.80;99.90
17252;DHT22;8742;51.716;8.790;2023-10-13T16:12:47;22.70;99.90
17252;DHT22;8742;51.716;8.790;2023-10-13T16:15:15;22.70;99.90
17252;DHT22;8742;51.716;8.790;2023-10-13T16:17:44;22.60;99.90
17252;DHT22;8742;51.716;8.790;2023-10-13T16:20:11;22.60;99.90
17252;DHT22;8742;51.716;8.790;2023-10-13T16:22:43;22.60;99.90
17252;DHT22;8742;51.716;8.790;2023-10-13T16:25:11;22.60;99.90
17252;DHT22;8742;51.716;8.790;2023-10-13T16:27:38;22.60;99.90